sensor_id;sensor_type;location;lat;lon;timestamp;P1;durP1;ratioP1;P2;durP2;ratioP2
67456;SDS011;54319;52.038;4.640;2023-05-10T00:01:56;45.90;;;18.95;;
67456;SDS011;54319;52.038;4.640;2023-05-10T00:04:23;48.85;;;19.80;;
67456;SDS011;54319;52.038;4.640;2023-05-10T00:06:52;41.53;;;19.88;;
67456;SDS011;54319;52.038;4.640;2023-05-10T00:09:19;46.80;;;20.10;;
67456;SDS011;54319;52.038;4.640;2023-05-10T00:11:45;52.25;;;22.02;;
67456;SDS011;54319;52.038;4.640;2023-05-10T00:14:12;54.75;;;23.42;;
67456;SDS011;54319;52.038;4.640;2023-05-10T00:16:40;58.80;;;24.00;;
67456;SDS011;54319;52.038;4.640;2023-05-10T00:19:06;58.88;;;23.45;;
67456;SDS011;54319;52.038;4.640;2023-05-10T00:21:33;52.95;;;23.15;;
67456;SDS011;54319;52.038;4.640;2023-05-10T00:24:00;51.75;;;23.00;;
67456;SDS011;54319;52.038;4.640;2023-05-10T00:26:27;49.43;;;21.67;;
67456;SDS011;54319;52.038;4.640;2023-05-10T00:28:53;51.78;;;22.67;;
67456;SDS011;54319;52.038;4.640;2023-05-10T00:31:20;49.07;;;22.43;;
67456;SDS011;54319;52.038;4.640;2023-05-10T00:33:48;56.95;;;21.90;;
67456;SDS011;54319;52.038;4.640;2023-05-10T00:36:14;52.42;;;22.85;;
67456;SDS011;54319;52.038;4.640;2023-05-10T00:38:41;55.15;;;22.90;;
67456;SDS011;54319;52.038;4.640;2023-05-10T00:41:07;55.97;;;22.90;;
67456;SDS011;54319;52.038;4.640;2023-05-10T00:43:34;66.70;;;24.70;;
67456;SDS011;54319;52.038;4.640;2023-05-10T00:46:01;67.53;;;26.33;;
67456;SDS011;54319;52.038;4.640;2023-05-10T00:48:28;71.53;;;26.20;;
67456;SDS011;54319;52.038;4.640;2023-05-10T00:50:56;83.93;;;26.25;;
67456;SDS011;54319;52.038;4.640;2023-05-10T00:53:23;84.30;;;26.90;;
67456;SDS011;54319;52.038;4.640;2023-05-10T00:55:50;74.05;;;25.55;;
67456;SDS011;54319;52.038;4.640;2023-05-10T00:58:17;76.93;;;26.55;;
67456;SDS011;54319;52.038;4.640;2023-05-10T01:00:44;76.70;;;26.38;;
67456;SDS011;54319;52.038;4.640;2023-05-10T01:03:12;79.47;;;27.33;;
67456;SDS011;54319;52.038;4.640;2023-05-10T01:05:39;78.07;;;27.77;;
67456;SDS011;54319;52.038;4.640;2023-05-10T01:08:07;72.30;;;27.57;;
67456;SDS011;54319;52.038;4.640;2023-05-10T01:10:34;68.55;;;28.63;;
67456;SDS011;54319;52.038;4.640;2023-05-10T01:13:01;75.37;;;30.00;;
67456;SDS011;54319;52.038;4.640;2023-05-10T01:15:28;77.35;;;29.50;;
67456;SDS011;54319;52.038;4.640;2023-05-10T01:17:56;83.65;;;29.85;;
67456;SDS011;54319;52.038;4.640;2023-05-10T01:20:23;76.00;;;31.17;;
67456;SDS011;54319;52.038;4.640;2023-05-10T01:23:04;74.25;;;30.63;;
67456;SDS011;54319;52.038;4.640;2023-05-10T01:25:53;78.32;;;31.70;;
67456;SDS011;54319;52.038;4.640;2023-05-10T01:34:57;88.20;;;29.27;;
67456;SDS011;54319;52.038;4.640;2023-05-10T01:37:31;94.18;;;29.63;;
67456;SDS011;54319;52.038;4.640;2023-05-10T01:40:08;86.85;;;29.42;;
67456;SDS011;54319;52.038;4.640;2023-05-10T01:42:43;85.05;;;28.50;;
67456;SDS011;54319;52.038;4.640;2023-05-10T01:45:15;91.65;;;29.13;;
67456;SDS011;54319;52.038;4.640;2023-05-10T01:47:50;95.53;;;28.15;;
67456;SDS011;54319;52.038;4.640;2023-05-10T01:50:27;106.40;;;27.88;;
67456;SDS011;54319;52.038;4.640;2023-05-10T01:52:57;106.88;;;26.45;;
67456;SDS011;54319;52.038;4.640;2023-05-10T01:55:27;104.43;;;28.42;;
67456;SDS011;54319;52.038;4.640;2023-05-10T01:57:58;91.38;;;26.30;;
67456;SDS011;54319;52.038;4.640;2023-05-10T02:00:28;90.60;;;26.45;;
67456;SDS011;54319;52.038;4.640;2023-05-10T02:02:56;98.40;;;27.73;;
67456;SDS011;54319;52.038;4.640;2023-05-10T02:05:23;101.18;;;27.73;;
67456;SDS011;54319;52.038;4.640;2023-05-10T02:07:52;92.88;;;27.02;;
67456;SDS011;54319;52.038;4.640;2023-05-10T02:10:20;106.65;;;29.17;;
67456;SDS011;54319;52.038;4.640;2023-05-10T02:12:47;103.18;;;29.25;;
67456;SDS011;54319;52.038;4.640;2023-05-10T02:15:17;101.00;;;28.90;;
67456;SDS011;54319;52.038;4.640;2023-05-10T02:17:47;87.97;;;27.02;;
67456;SDS011;54319;52.038;4.640;2023-05-10T02:20:14;93.07;;;27.70;;
67456;SDS011;54319;52.038;4.640;2023-05-10T02:22:44;90.28;;;27.35;;
67456;SDS011;54319;52.038;4.640;2023-05-10T02:25:13;92.72;;;27.30;;
67456;SDS011;54319;52.038;4.640;2023-05-10T02:27:41;91.75;;;26.38;;
67456;SDS011;54319;52.038;4.640;2023-05-10T02:30:10;88.32;;;26.95;;
67456;SDS011;54319;52.038;4.640;2023-05-10T02:32:37;79.32;;;27.05;;
67456;SDS011;54319;52.038;4.640;2023-05-10T02:35:05;85.30;;;25.83;;
67456;SDS011;54319;52.038;4.640;2023-05-10T02:37:33;79.35;;;25.13;;
67456;SDS011;54319;52.038;4.640;2023-05-10T02:40:03;72.25;;;25.58;;
67456;SDS011;54319;52.038;4.640;2023-05-10T02:42:32;70.68;;;25.17;;
67456;SDS011;54319;52.038;4.640;2023-05-10T02:45:03;76.68;;;25.67;;
67456;SDS011;54319;52.038;4.640;2023-05-10T02:47:34;66.68;;;23.52;;
67456;SDS011;54319;52.038;4.640;2023-05-10T02:50:01;70.07;;;25.27;;
67456;SDS011;54319;52.038;4.640;2023-05-10T02:52:29;75.35;;;25.65;;
67456;SDS011;54319;52.038;4.640;2023-05-10T02:55:04;66.25;;;24.75;;
67456;SDS011;54319;52.038;4.640;2023-05-10T02:57:32;71.38;;;24.98;;
67456;SDS011;54319;52.038;4.640;2023-05-10T03:00:00;81.53;;;26.67;;
67456;SDS011;54319;52.038;4.640;2023-05-10T03:02:28;86.00;;;28.48;;
67456;SDS011;54319;52.038;4.640;2023-05-10T03:07:22;84.90;;;26.52;;
67456;SDS011;54319;52.038;4.640;2023-05-10T03:09:49;81.25;;;27.90;;
67456;SDS011;54319;52.038;4.640;2023-05-10T03:12:19;84.37;;;29.53;;
67456;SDS011;54319;52.038;4.640;2023-05-10T03:14:54;83.68;;;27.90;;
67456;SDS011;54319;52.038;4.640;2023-05-10T03:17:29;67.68;;;27.52;;
67456;SDS011;54319;52.038;4.640;2023-05-10T03:20:01;69.47;;;27.98;;
67456;SDS011;54319;52.038;4.640;2023-05-10T03:22:32;65.55;;;26.85;;
67456;SDS011;54319;52.038;4.640;2023-05-10T03:25:04;64.20;;;27.63;;
67456;SDS011;54319;52.038;4.640;2023-05-10T03:27:35;67.60;;;27.25;;
67456;SDS011;54319;52.038;4.640;2023-05-10T03:30:02;62.45;;;28.25;;
67456;SDS011;54319;52.038;4.640;2023-05-10T03:32:31;69.03;;;29.05;;
67456;SDS011;54319;52.038;4.640;2023-05-10T03:34:59;72.90;;;29.17;;
67456;SDS011;54319;52.038;4.640;2023-05-10T03:37:26;78.33;;;32.17;;
67456;SDS011;54319;52.038;4.640;2023-05-10T03:39:53;77.87;;;31.00;;
67456;SDS011;54319;52.038;4.640;2023-05-10T03:42:19;72.07;;;30.27;;
67456;SDS011;54319;52.038;4.640;2023-05-10T03:44:47;71.50;;;30.65;;
67456;SDS011;54319;52.038;4.640;2023-05-10T03:47:14;78.72;;;30.67;;
67456;SDS011;54319;52.038;4.640;2023-05-10T03:49:41;68.07;;;30.33;;
67456;SDS011;54319;52.038;4.640;2023-05-10T03:52:08;72.28;;;30.08;;
67456;SDS011;54319;52.038;4.640;2023-05-10T03:54:34;77.23;;;33.40;;
67456;SDS011;54319;52.038;4.640;2023-05-10T03:57:01;65.90;;;29.77;;
67456;SDS011;54319;52.038;4.640;2023-05-10T03:59:28;62.50;;;29.58;;
67456;SDS011;54319;52.038;4.640;2023-05-10T04:01:56;62.15;;;30.00;;
67456;SDS011;54319;52.038;4.640;2023-05-10T04:04:23;67.80;;;30.02;;
67456;SDS011;54319;52.038;4.640;2023-05-10T04:06:49;71.80;;;30.73;;
67456;SDS011;54319;52.038;4.640;2023-05-10T04:09:16;63.63;;;28.90;;
67456;SDS011;54319;52.038;4.640;2023-05-10T04:11:43;62.60;;;30.77;;
67456;SDS011;54319;52.038;4.640;2023-05-10T04:14:09;62.83;;;30.25;;
67456;SDS011;54319;52.038;4.640;2023-05-10T04:16:36;62.58;;;31.38;;
67456;SDS011;54319;52.038;4.640;2023-05-10T04:19:04;75.93;;;35.43;;
67456;SDS011;54319;52.038;4.640;2023-05-10T04:21:30;67.25;;;31.42;;
67456;SDS011;54319;52.038;4.640;2023-05-10T04:23:57;74.40;;;32.50;;
67456;SDS011;54319;52.038;4.640;2023-05-10T04:26:24;68.13;;;32.37;;
67456;SDS011;54319;52.038;4.640;2023-05-10T04:28:51;66.00;;;31.80;;
67456;SDS011;54319;52.038;4.640;2023-05-10T04:31:17;58.83;;;31.53;;
67456;SDS011;54319;52.038;4.640;2023-05-10T04:33:44;70.40;;;33.57;;
67456;SDS011;54319;52.038;4.640;2023-05-10T04:36:12;70.67;;;32.53;;
67456;SDS011;54319;52.038;4.640;2023-05-10T04:38:38;66.90;;;31.23;;
67456;SDS011;54319;52.038;4.640;2023-05-10T04:41:05;58.10;;;31.30;;
67456;SDS011;54319;52.038;4.640;2023-05-10T04:43:33;52.53;;;27.83;;
67456;SDS011;54319;52.038;4.640;2023-05-10T04:46:00;59.08;;;26.33;;
67456;SDS011;54319;52.038;4.640;2023-05-10T04:48:27;46.77;;;22.27;;
67456;SDS011;54319;52.038;4.640;2023-05-10T04:50:53;50.27;;;23.07;;
67456;SDS011;54319;52.038;4.640;2023-05-10T04:53:21;48.13;;;23.90;;
67456;SDS011;54319;52.038;4.640;2023-05-10T04:55:48;52.40;;;25.33;;
67456;SDS011;54319;52.038;4.640;2023-05-10T04:58:15;50.97;;;24.23;;
67456;SDS011;54319;52.038;4.640;2023-05-10T05:00:41;51.03;;;24.92;;
67456;SDS011;54319;52.038;4.640;2023-05-10T05:03:09;53.92;;;25.85;;
67456;SDS011;54319;52.038;4.640;2023-05-10T05:05:35;56.10;;;24.80;;
67456;SDS011;54319;52.038;4.640;2023-05-10T05:08:02;49.37;;;22.23;;
67456;SDS011;54319;52.038;4.640;2023-05-10T05:10:31;48.30;;;22.75;;
67456;SDS011;54319;52.038;4.640;2023-05-10T05:12:57;51.33;;;22.73;;
67456;SDS011;54319;52.038;4.640;2023-05-10T05:15:24;40.13;;;20.10;;
67456;SDS011;54319;52.038;4.640;2023-05-10T05:17:51;43.53;;;21.50;;
67456;SDS011;54319;52.038;4.640;2023-05-10T05:20:17;44.33;;;20.73;;
67456;SDS011;54319;52.038;4.640;2023-05-10T05:22:44;44.58;;;21.70;;
67456;SDS011;54319;52.038;4.640;2023-05-10T05:25:11;44.77;;;22.00;;
67456;SDS011;54319;52.038;4.640;2023-05-10T05:27:39;44.77;;;20.50;;
67456;SDS011;54319;52.038;4.640;2023-05-10T05:30:06;39.55;;;18.95;;
67456;SDS011;54319;52.038;4.640;2023-05-10T05:32:33;38.88;;;19.85;;
67456;SDS011;54319;52.038;4.640;2023-05-10T05:35:00;39.27;;;18.83;;
67456;SDS011;54319;52.038;4.640;2023-05-10T05:37:27;36.53;;;18.07;;
67456;SDS011;54319;52.038;4.640;2023-05-10T05:39:53;39.43;;;17.10;;
67456;SDS011;54319;52.038;4.640;2023-05-10T05:42:20;35.75;;;16.73;;
67456;SDS011;54319;52.038;4.640;2023-05-10T05:45:00;35.55;;;16.65;;
67456;SDS011;54319;52.038;4.640;2023-05-10T05:47:27;35.72;;;15.75;;
67456;SDS011;54319;52.038;4.640;2023-05-10T05:49:54;39.30;;;17.38;;
67456;SDS011;54319;52.038;4.640;2023-05-10T05:52:20;34.47;;;15.63;;
67456;SDS011;54319;52.038;4.640;2023-05-10T05:54:47;39.47;;;15.80;;
67456;SDS011;54319;52.038;4.640;2023-05-10T05:57:14;32.47;;;14.40;;
67456;SDS011;54319;52.038;4.640;2023-05-10T05:59:40;32.15;;;13.52;;
67456;SDS011;54319;52.038;4.640;2023-05-10T06:02:10;27.75;;;12.60;;
67456;SDS011;54319;52.038;4.640;2023-05-10T06:04:36;27.30;;;11.50;;
67456;SDS011;54319;52.038;4.640;2023-05-10T06:07:03;30.75;;;12.02;;
67456;SDS011;54319;52.038;4.640;2023-05-10T06:09:30;25.17;;;10.23;;
67456;SDS011;54319;52.038;4.640;2023-05-10T06:11:56;19.50;;;9.60;;
67456;SDS011;54319;52.038;4.640;2023-05-10T06:14:23;20.08;;;8.95;;
67456;SDS011;54319;52.038;4.640;2023-05-10T06:16:50;17.27;;;8.80;;
67456;SDS011;54319;52.038;4.640;2023-05-10T06:19:18;19.30;;;8.67;;
67456;SDS011;54319;52.038;4.640;2023-05-10T06:21:44;17.42;;;8.50;;
67456;SDS011;54319;52.038;4.640;2023-05-10T06:24:11;15.57;;;8.03;;
67456;SDS011;54319;52.038;4.640;2023-05-10T06:26:38;14.77;;;6.87;;
67456;SDS011;54319;52.038;4.640;2023-05-10T06:29:04;12.37;;;7.17;;
67456;SDS011;54319;52.038;4.640;2023-05-10T06:31:31;12.40;;;7.13;;
67456;SDS011;54319;52.038;4.640;2023-05-10T06:33:58;16.23;;;8.00;;
67456;SDS011;54319;52.038;4.640;2023-05-10T06:36:25;19.33;;;8.27;;
67456;SDS011;54319;52.038;4.640;2023-05-10T06:38:52;12.20;;;7.13;;
67456;SDS011;54319;52.038;4.640;2023-05-10T06:41:19;12.90;;;7.10;;
67456;SDS011;54319;52.038;4.640;2023-05-10T06:43:46;12.38;;;6.97;;
67456;SDS011;54319;52.038;4.640;2023-05-10T06:46:15;14.32;;;7.57;;
67456;SDS011;54319;52.038;4.640;2023-05-10T06:48:41;11.35;;;6.75;;
67456;SDS011;54319;52.038;4.640;2023-05-10T06:51:08;9.13;;;5.80;;
67456;SDS011;54319;52.038;4.640;2023-05-10T06:53:36;11.60;;;6.63;;
67456;SDS011;54319;52.038;4.640;2023-05-10T06:56:03;9.85;;;5.95;;
67456;SDS011;54319;52.038;4.640;2023-05-10T06:58:30;7.80;;;5.07;;
67456;SDS011;54319;52.038;4.640;2023-05-10T07:01:01;9.25;;;5.72;;
67456;SDS011;54319;52.038;4.640;2023-05-10T07:03:28;7.20;;;4.53;;
67456;SDS011;54319;52.038;4.640;2023-05-10T07:05:59;6.60;;;4.40;;
67456;SDS011;54319;52.038;4.640;2023-05-10T07:08:28;6.05;;;4.20;;
67456;SDS011;54319;52.038;4.640;2023-05-10T07:11:00;6.10;;;3.90;;
67456;SDS011;54319;52.038;4.640;2023-05-10T07:13:28;6.22;;;4.00;;
67456;SDS011;54319;52.038;4.640;2023-05-10T07:15:55;5.38;;;3.65;;
67456;SDS011;54319;52.038;4.640;2023-05-10T07:18:22;6.05;;;3.92;;
67456;SDS011;54319;52.038;4.640;2023-05-10T07:20:48;5.10;;;3.43;;
67456;SDS011;54319;52.038;4.640;2023-05-10T07:23:15;6.73;;;3.80;;
67456;SDS011;54319;52.038;4.640;2023-05-10T07:28:12;6.53;;;3.67;;
67456;SDS011;54319;52.038;4.640;2023-05-10T07:30:39;7.72;;;3.90;;
67456;SDS011;54319;52.038;4.640;2023-05-10T07:33:05;5.47;;;4.10;;
67456;SDS011;54319;52.038;4.640;2023-05-10T07:35:33;8.43;;;4.05;;
67456;SDS011;54319;52.038;4.640;2023-05-10T07:38:00;8.30;;;4.50;;
67456;SDS011;54319;52.038;4.640;2023-05-10T07:40:26;6.45;;;4.47;;
67456;SDS011;54319;52.038;4.640;2023-05-10T07:42:54;6.00;;;4.20;;
67456;SDS011;54319;52.038;4.640;2023-05-10T07:45:22;6.18;;;4.72;;
67456;SDS011;54319;52.038;4.640;2023-05-10T07:47:49;7.47;;;4.68;;
67456;SDS011;54319;52.038;4.640;2023-05-10T07:50:16;6.50;;;4.50;;
67456;SDS011;54319;52.038;4.640;2023-05-10T07:52:43;8.15;;;5.07;;
67456;SDS011;54319;52.038;4.640;2023-05-10T07:55:11;7.35;;;5.03;;
67456;SDS011;54319;52.038;4.640;2023-05-10T07:57:38;7.18;;;4.60;;
67456;SDS011;54319;52.038;4.640;2023-05-10T08:00:05;8.60;;;5.22;;
67456;SDS011;54319;52.038;4.640;2023-05-10T08:02:34;8.43;;;4.78;;
67456;SDS011;54319;52.038;4.640;2023-05-10T08:05:01;7.40;;;4.80;;
67456;SDS011;54319;52.038;4.640;2023-05-10T08:07:28;8.55;;;5.40;;
67456;SDS011;54319;52.038;4.640;2023-05-10T08:09:55;10.20;;;5.38;;
67456;SDS011;54319;52.038;4.640;2023-05-10T08:12:21;9.40;;;5.13;;
67456;SDS011;54319;52.038;4.640;2023-05-10T08:14:48;8.07;;;4.93;;
67456;SDS011;54319;52.038;4.640;2023-05-10T08:17:14;10.23;;;5.10;;
67456;SDS011;54319;52.038;4.640;2023-05-10T08:19:43;7.97;;;5.50;;
67456;SDS011;54319;52.038;4.640;2023-05-10T08:22:09;7.95;;;4.60;;
67456;SDS011;54319;52.038;4.640;2023-05-10T08:24:36;8.52;;;5.57;;
67456;SDS011;54319;52.038;4.640;2023-05-10T08:27:03;7.53;;;5.20;;
67456;SDS011;54319;52.038;4.640;2023-05-10T08:31:57;6.85;;;4.32;;
67456;SDS011;54319;52.038;4.640;2023-05-10T08:34:24;8.80;;;4.70;;
67456;SDS011;54319;52.038;4.640;2023-05-10T08:36:52;8.27;;;4.30;;
67456;SDS011;54319;52.038;4.640;2023-05-10T08:39:19;9.43;;;4.55;;
67456;SDS011;54319;52.038;4.640;2023-05-10T08:41:45;7.73;;;4.13;;
67456;SDS011;54319;52.038;4.640;2023-05-10T08:44:16;8.68;;;4.88;;
67456;SDS011;54319;52.038;4.640;2023-05-10T08:46:44;8.63;;;4.65;;
67456;SDS011;54319;52.038;4.640;2023-05-10T08:49:13;8.65;;;4.43;;
67456;SDS011;54319;52.038;4.640;2023-05-10T08:51:43;6.90;;;4.53;;
67456;SDS011;54319;52.038;4.640;2023-05-10T08:54:14;7.55;;;4.63;;
67456;SDS011;54319;52.038;4.640;2023-05-10T08:56:41;8.23;;;5.13;;
67456;SDS011;54319;52.038;4.640;2023-05-10T08:59:08;9.10;;;4.85;;
67456;SDS011;54319;52.038;4.640;2023-05-10T09:01:37;7.85;;;4.70;;
67456;SDS011;54319;52.038;4.640;2023-05-10T09:06:31;9.85;;;5.50;;
67456;SDS011;54319;52.038;4.640;2023-05-10T09:08:59;8.15;;;4.90;;
67456;SDS011;54319;52.038;4.640;2023-05-10T09:11:27;7.60;;;4.40;;
67456;SDS011;54319;52.038;4.640;2023-05-10T09:13:55;6.90;;;4.35;;
67456;SDS011;54319;52.038;4.640;2023-05-10T09:16:22;8.32;;;4.55;;
67456;SDS011;54319;52.038;4.640;2023-05-10T09:18:50;6.68;;;4.07;;
67456;SDS011;54319;52.038;4.640;2023-05-10T09:21:16;7.68;;;3.95;;
67456;SDS011;54319;52.038;4.640;2023-05-10T09:23:45;6.22;;;3.70;;
67456;SDS011;54319;52.038;4.640;2023-05-10T09:26:16;6.40;;;3.90;;
67456;SDS011;54319;52.038;4.640;2023-05-10T09:28:54;7.82;;;4.18;;
67456;SDS011;54319;52.038;4.640;2023-05-10T09:31:21;7.70;;;4.22;;
67456;SDS011;54319;52.038;4.640;2023-05-10T09:33:49;6.10;;;4.18;;
67456;SDS011;54319;52.038;4.640;2023-05-10T09:36:16;5.80;;;3.60;;
67456;SDS011;54319;52.038;4.640;2023-05-10T09:38:46;5.03;;;3.45;;
67456;SDS011;54319;52.038;4.640;2023-05-10T09:41:17;5.78;;;3.65;;
67456;SDS011;54319;52.038;4.640;2023-05-10T09:43:45;7.15;;;3.90;;
67456;SDS011;54319;52.038;4.640;2023-05-10T09:46:13;6.13;;;3.63;;
67456;SDS011;54319;52.038;4.640;2023-05-10T09:48:41;5.63;;;3.95;;
67456;SDS011;54319;52.038;4.640;2023-05-10T09:51:10;7.68;;;4.07;;
67456;SDS011;54319;52.038;4.640;2023-05-10T09:53:36;4.90;;;3.55;;
67456;SDS011;54319;52.038;4.640;2023-05-10T09:56:03;7.30;;;3.85;;
67456;SDS011;54319;52.038;4.640;2023-05-10T09:58:30;7.40;;;3.83;;
67456;SDS011;54319;52.038;4.640;2023-05-10T10:00:57;6.80;;;4.35;;
67456;SDS011;54319;52.038;4.640;2023-05-10T10:03:25;5.50;;;3.83;;
67456;SDS011;54319;52.038;4.640;2023-05-10T10:05:52;7.93;;;3.80;;
67456;SDS011;54319;52.038;4.640;2023-05-10T10:08:21;6.22;;;4.07;;
67456;SDS011;54319;52.038;4.640;2023-05-10T10:10:47;5.95;;;4.20;;
67456;SDS011;54319;52.038;4.640;2023-05-10T10:13:15;8.13;;;4.32;;
67456;SDS011;54319;52.038;4.640;2023-05-10T10:15:42;9.15;;;4.70;;
67456;SDS011;54319;52.038;4.640;2023-05-10T10:18:11;7.95;;;4.22;;
67456;SDS011;54319;52.038;4.640;2023-05-10T10:20:40;7.03;;;4.60;;
67456;SDS011;54319;52.038;4.640;2023-05-10T10:23:07;6.22;;;4.40;;
67456;SDS011;54319;52.038;4.640;2023-05-10T10:25:34;7.00;;;4.88;;
67456;SDS011;54319;52.038;4.640;2023-05-10T10:28:06;7.13;;;4.35;;
67456;SDS011;54319;52.038;4.640;2023-05-10T10:30:46;7.65;;;4.65;;
67456;SDS011;54319;52.038;4.640;2023-05-10T10:33:30;7.53;;;4.40;;
67456;SDS011;54319;52.038;4.640;2023-05-10T10:36:06;8.02;;;4.40;;
67456;SDS011;54319;52.038;4.640;2023-05-10T10:38:37;8.75;;;5.13;;
67456;SDS011;54319;52.038;4.640;2023-05-10T10:41:27;9.63;;;4.75;;
67456;SDS011;54319;52.038;4.640;2023-05-10T10:47:01;9.88;;;5.43;;
67456;SDS011;54319;52.038;4.640;2023-05-10T10:49:30;15.23;;;6.15;;
67456;SDS011;54319;52.038;4.640;2023-05-10T10:55:00;16.58;;;5.57;;
67456;SDS011;54319;52.038;4.640;2023-05-10T10:57:31;11.00;;;5.32;;
67456;SDS011;54319;52.038;4.640;2023-05-10T11:00:17;8.60;;;5.15;;
67456;SDS011;54319;52.038;4.640;2023-05-10T11:02:49;9.75;;;5.57;;
67456;SDS011;54319;52.038;4.640;2023-05-10T11:08:15;11.57;;;6.20;;
67456;SDS011;54319;52.038;4.640;2023-05-10T11:10:51;10.30;;;5.32;;
67456;SDS011;54319;52.038;4.640;2023-05-10T11:13:29;10.73;;;5.25;;
67456;SDS011;54319;52.038;4.640;2023-05-10T11:15:57;9.38;;;5.68;;
67456;SDS011;54319;52.038;4.640;2023-05-10T11:18:25;11.55;;;5.50;;
67456;SDS011;54319;52.038;4.640;2023-05-10T11:20:55;9.65;;;5.65;;
67456;SDS011;54319;52.038;4.640;2023-05-10T11:23:28;8.25;;;4.95;;
67456;SDS011;54319;52.038;4.640;2023-05-10T11:25:56;12.95;;;5.93;;
67456;SDS011;54319;52.038;4.640;2023-05-10T11:28:23;12.40;;;7.28;;
67456;SDS011;54319;52.038;4.640;2023-05-10T11:30:50;11.18;;;6.40;;
67456;SDS011;54319;52.038;4.640;2023-05-10T11:33:17;11.20;;;5.95;;
67456;SDS011;54319;52.038;4.640;2023-05-10T11:35:45;10.32;;;5.38;;
67456;SDS011;54319;52.038;4.640;2023-05-10T11:38:12;11.05;;;6.32;;
67456;SDS011;54319;52.038;4.640;2023-05-10T11:40:41;12.15;;;6.30;;
67456;SDS011;54319;52.038;4.640;2023-05-10T11:43:08;14.48;;;6.53;;
67456;SDS011;54319;52.038;4.640;2023-05-10T11:45:40;10.35;;;6.28;;
67456;SDS011;54319;52.038;4.640;2023-05-10T11:48:07;13.75;;;6.95;;
67456;SDS011;54319;52.038;4.640;2023-05-10T11:50:34;8.60;;;5.35;;
67456;SDS011;54319;52.038;4.640;2023-05-10T11:53:01;10.10;;;5.40;;
67456;SDS011;54319;52.038;4.640;2023-05-10T11:55:27;9.88;;;5.57;;
67456;SDS011;54319;52.038;4.640;2023-05-10T11:58:00;9.93;;;5.85;;
67456;SDS011;54319;52.038;4.640;2023-05-10T12:00:27;9.63;;;5.60;;
67456;SDS011;54319;52.038;4.640;2023-05-10T12:05:21;9.63;;;6.00;;
67456;SDS011;54319;52.038;4.640;2023-05-10T12:07:48;8.80;;;5.40;;
67456;SDS011;54319;52.038;4.640;2023-05-10T12:12:43;7.93;;;5.22;;
67456;SDS011;54319;52.038;4.640;2023-05-10T12:15:16;10.63;;;6.00;;
67456;SDS011;54319;52.038;4.640;2023-05-10T12:17:44;8.38;;;5.70;;
67456;SDS011;54319;52.038;4.640;2023-05-10T12:20:15;8.95;;;5.47;;
67456;SDS011;54319;52.038;4.640;2023-05-10T12:22:46;12.70;;;6.00;;
67456;SDS011;54319;52.038;4.640;2023-05-10T12:25:15;10.43;;;5.40;;
67456;SDS011;54319;52.038;4.640;2023-05-10T12:27:47;8.40;;;5.70;;
67456;SDS011;54319;52.038;4.640;2023-05-10T12:30:20;9.38;;;5.78;;
67456;SDS011;54319;52.038;4.640;2023-05-10T12:32:47;10.52;;;5.95;;
67456;SDS011;54319;52.038;4.640;2023-05-10T12:35:14;12.07;;;5.05;;
67456;SDS011;54319;52.038;4.640;2023-05-10T12:37:42;7.47;;;4.53;;
67456;SDS011;54319;52.038;4.640;2023-05-10T12:42:36;5.85;;;3.80;;
67456;SDS011;54319;52.038;4.640;2023-05-10T12:45:05;8.57;;;4.90;;
67456;SDS011;54319;52.038;4.640;2023-05-10T12:47:34;8.38;;;5.40;;
67456;SDS011;54319;52.038;4.640;2023-05-10T12:50:01;10.48;;;5.05;;
67456;SDS011;54319;52.038;4.640;2023-05-10T12:54:55;9.82;;;4.80;;
67456;SDS011;54319;52.038;4.640;2023-05-10T12:57:21;8.57;;;5.05;;
67456;SDS011;54319;52.038;4.640;2023-05-10T12:59:48;8.63;;;4.75;;
67456;SDS011;54319;52.038;4.640;2023-05-10T13:02:15;9.05;;;5.57;;
67456;SDS011;54319;52.038;4.640;2023-05-10T13:04:44;9.25;;;5.20;;
67456;SDS011;54319;52.038;4.640;2023-05-10T13:07:11;9.23;;;5.45;;
67456;SDS011;54319;52.038;4.640;2023-05-10T13:09:38;8.55;;;5.30;;
67456;SDS011;54319;52.038;4.640;2023-05-10T13:12:05;9.27;;;5.53;;
67456;SDS011;54319;52.038;4.640;2023-05-10T13:14:31;11.40;;;5.90;;
67456;SDS011;54319;52.038;4.640;2023-05-10T13:16:58;8.60;;;5.60;;
67456;SDS011;54319;52.038;4.640;2023-05-10T13:19:25;10.52;;;5.82;;
67456;SDS011;54319;52.038;4.640;2023-05-10T13:21:53;10.23;;;5.25;;
67456;SDS011;54319;52.038;4.640;2023-05-10T13:24:20;8.63;;;5.10;;
67456;SDS011;54319;52.038;4.640;2023-05-10T13:26:47;6.68;;;4.57;;
67456;SDS011;54319;52.038;4.640;2023-05-10T13:29:14;10.32;;;5.32;;
67456;SDS011;54319;52.038;4.640;2023-05-10T13:31:43;12.40;;;6.55;;
67456;SDS011;54319;52.038;4.640;2023-05-10T13:34:09;8.82;;;5.35;;
67456;SDS011;54319;52.038;4.640;2023-05-10T13:36:36;5.78;;;3.78;;
67456;SDS011;54319;52.038;4.640;2023-05-10T13:39:04;10.25;;;5.53;;
67456;SDS011;54319;52.038;4.640;2023-05-10T13:41:31;9.98;;;5.35;;
67456;SDS011;54319;52.038;4.640;2023-05-10T13:43:58;6.75;;;4.55;;
67456;SDS011;54319;52.038;4.640;2023-05-10T13:46:24;7.93;;;4.67;;
67456;SDS011;54319;52.038;4.640;2023-05-10T13:48:51;7.25;;;3.88;;
67456;SDS011;54319;52.038;4.640;2023-05-10T13:51:21;6.03;;;3.53;;
67456;SDS011;54319;52.038;4.640;2023-05-10T13:53:50;5.97;;;3.70;;
67456;SDS011;54319;52.038;4.640;2023-05-10T13:56:18;6.95;;;3.85;;
67456;SDS011;54319;52.038;4.640;2023-05-10T13:58:45;6.70;;;3.83;;
67456;SDS011;54319;52.038;4.640;2023-05-10T14:01:12;7.90;;;4.13;;
67456;SDS011;54319;52.038;4.640;2023-05-10T14:03:39;8.23;;;4.10;;
67456;SDS011;54319;52.038;4.640;2023-05-10T14:06:05;6.72;;;4.10;;
67456;SDS011;54319;52.038;4.640;2023-05-10T14:08:33;9.70;;;4.80;;
67456;SDS011;54319;52.038;4.640;2023-05-10T14:13:28;5.43;;;3.88;;
67456;SDS011;54319;52.038;4.640;2023-05-10T14:15:55;7.38;;;3.78;;
67456;SDS011;54319;52.038;4.640;2023-05-10T14:18:21;5.50;;;3.78;;
67456;SDS011;54319;52.038;4.640;2023-05-10T14:20:48;5.18;;;3.50;;
67456;SDS011;54319;52.038;4.640;2023-05-10T14:23:15;4.65;;;3.40;;
67456;SDS011;54319;52.038;4.640;2023-05-10T14:25:41;5.20;;;3.10;;
67456;SDS011;54319;52.038;4.640;2023-05-10T14:28:09;5.40;;;3.30;;
67456;SDS011;54319;52.038;4.640;2023-05-10T14:30:38;6.65;;;3.22;;
67456;SDS011;54319;52.038;4.640;2023-05-10T14:33:04;5.70;;;3.20;;
67456;SDS011;54319;52.038;4.640;2023-05-10T14:35:32;4.65;;;2.92;;
67456;SDS011;54319;52.038;4.640;2023-05-10T14:37:59;4.60;;;3.20;;
67456;SDS011;54319;52.038;4.640;2023-05-10T14:40:26;7.28;;;3.17;;
67456;SDS011;54319;52.038;4.640;2023-05-10T14:42:53;5.90;;;3.22;;
67456;SDS011;54319;52.038;4.640;2023-05-10T14:45:20;6.35;;;3.25;;
67456;SDS011;54319;52.038;4.640;2023-05-10T14:47:49;4.85;;;3.53;;
67456;SDS011;54319;52.038;4.640;2023-05-10T14:50:15;4.70;;;3.05;;
67456;SDS011;54319;52.038;4.640;2023-05-10T14:55:09;6.15;;;3.40;;
67456;SDS011;54319;52.038;4.640;2023-05-10T14:57:36;5.72;;;3.63;;
67456;SDS011;54319;52.038;4.640;2023-05-10T15:00:03;5.45;;;3.30;;
67456;SDS011;54319;52.038;4.640;2023-05-10T15:02:30;5.85;;;3.47;;
67456;SDS011;54319;52.038;4.640;2023-05-10T15:04:59;7.35;;;3.72;;
67456;SDS011;54319;52.038;4.640;2023-05-10T15:07:25;4.97;;;3.40;;
67456;SDS011;54319;52.038;4.640;2023-05-10T15:09:52;4.93;;;3.05;;
67456;SDS011;54319;52.038;4.640;2023-05-10T15:12:19;5.60;;;3.50;;
67456;SDS011;54319;52.038;4.640;2023-05-10T15:14:46;5.43;;;3.20;;
67456;SDS011;54319;52.038;4.640;2023-05-10T15:17:13;4.60;;;3.50;;
67456;SDS011;54319;52.038;4.640;2023-05-10T15:19:39;4.43;;;3.28;;
67456;SDS011;54319;52.038;4.640;2023-05-10T15:22:07;5.75;;;3.70;;